Time;durP1;ratioP1;P1;durP2;ratioP2;P2;SDS_P1;SDS_P2;PMS_P1;PMS_P2;Temp;Humidity;BMP_temperature;BMP_pressure;BME280_temperature;BME280_humidity;BME280_pressure;Samples;Min_cycle;Max_cycle;Signal;HPM_P1;HPM_P2
2021/04/17 00:00:32;;;;;;;2.33;1.43;;;;;;;;;;5076436;28;20416;-74
2021/04/17 00:02:58;;;;;;;1.83;1.40;;;;;;;;;;5089098;28;20416;-73
2021/04/17 00:05:24;;;;;;;2.03;1.83;;;;;;;;;;5096822;28;20868;-73
2021/04/17 00:07:53;;;;;;;3.05;1.50;;;;;;;;;;5090174;28;20849;-73
2021/04/17 00:10:20;;;;;;;3.92;1.90;;;;;;;;;;5076291;28;20168;-74
2021/04/17 00:12:46;;;;;;;3.33;1.33;;;;;;;;;;5075025;28;20266;-74
2021/04/17 00:15:12;;;;;;;2.85;1.80;;;;;;;;;;5076768;28;20547;-73
2021/04/17 00:17:38;;;;;;;2.17;1.50;;;;;;;;;;5076525;28;20172;-73
2021/04/17 00:20:05;;;;;;;1.35;1.25;;;;;;;;;;5086988;28;20171;-73
2021/04/17 00:22:31;;;;;;;6.70;1.65;;;;;;;;;;5075957;28;20183;-73
2021/04/17 00:24:57;;;;;;;7.47;2.08;;;;;;;;;;5077290;28;20606;-73
2021/04/17 00:27:23;;;;;;;1.75;1.42;;;;;;;;;;5088819;28;20178;-74
2021/04/17 00:29:53;;;;;;;1.92;1.80;;;;;;;;;;5076472;28;20159;-74
2021/04/17 00:32:20;;;;;;;2.38;1.70;;;;;;;;;;5085414;28;20166;-74
2021/04/17 00:34:46;;;;;;;2.37;1.33;;;;;;;;;;5093161;28;20198;-74
2021/04/17 00:37:12;;;;;;;2.45;1.52;;;;;;;;;;5096244;28;20407;-74
2021/04/17 00:39:38;;;;;;;1.65;1.55;;;;;;;;;;5095245;28;20614;-73
2021/04/17 00:42:05;;;;;;;1.70;1.25;;;;;;;;;;5076225;28;20181;-74
2021/04/17 00:44:36;;;;;;;1.88;1.27;;;;;;;;;;5074637;28;20199;-73
2021/04/17 00:47:06;;;;;;;1.40;1.30;;;5.30;1.00;;;;;;5076174;28;20217;-74
2021/04/17 00:49:33;;;;;;;2.60;2.38;;;;;;;;;;5075732;28;20217;-74
2021/04/17 00:51:59;;;;;;;2.40;1.55;;;;;;;;;;5074407;28;20167;-74
2021/04/17 00:54:25;;;;;;;2.05;1.70;;;;;;;;;;5095710;28;20198;-73
2021/04/17 00:56:52;;;;;;;3.42;1.80;;;;;;;;;;5075700;28;20254;-74
2021/04/17 00:59:23;;;;;;;2.70;1.90;;;;;;;;;;5088021;28;20771;-74
2021/04/17 01:01:49;;;;;;;5.13;2.08;;;;;;;;;;5092484;28;20248;-74
2021/04/17 01:04:23;;;;;;;1.55;1.45;;;;;;;;;;5075618;28;20587;-74
2021/04/17 01:06:49;;;;;;;1.90;1.80;;;;;;;;;;5075529;28;20159;-74
2021/04/17 01:09:21;;;;;;;2.40;1.90;;;;;;;;;;5094430;28;20175;-74
2021/04/17 01:12:07;;;;;;;2.07;1.87;;;5.30;1.00;;;;;;5078780;28;20417;-74
2021/04/17 01:14:34;;;;;;;2.38;1.85;;;5.30;1.00;;;;;;5095491;28;20435;-74
2021/04/17 01:17:02;;;;;;;2.03;1.80;;;5.30;1.00;;;;;;5090218;28;20177;-74
2021/04/17 01:19:55;;;;;;;1.60;1.50;;;5.30;1.00;;;;;;5088828;28;20175;-74
2021/04/17 01:22:24;;;;;;;3.20;1.80;;;5.20;1.00;;;;;;5074895;28;20386;-74
2021/04/17 01:25:10;;;;;;;3.28;1.77;;;5.20;1.00;;;;;;5080820;28;20418;-73
2021/04/17 01:27:36;;;;;;;3.00;1.77;;;5.20;1.00;;;;;;5082765;28;20210;-73
2021/04/17 01:30:13;;;;;;;3.10;2.27;;;5.20;1.00;;;;;;5095221;28;20169;-74
2021/04/17 01:32:41;;;;;;;4.47;2.80;;;5.10;1.00;;;;;;5094349;28;20415;-73
2021/04/17 01:35:09;;;;;;;2.70;1.73;;;;;;;;;;5076391;28;20451;-74
2021/04/17 01:37:53;;;;;;;1.73;1.40;;;;;;;;;;5074743;28;20161;-74
2021/04/17 01:40:30;;;;;;;1.65;1.55;;;5.00;1.00;;;;;;5075422;28;20421;-74
2021/04/17 01:42:56;;;;;;;4.18;2.28;;;5.00;1.00;;;;;;5073335;28;20522;-74
2021/04/17 01:45:25;;;;;;;3.03;1.93;;;5.00;1.00;;;;;;5074515;28;20182;-74
2021/04/17 01:47:56;;;;;;;2.92;2.08;;;5.00;1.00;;;;;;5074446;28;20862;-73
2021/04/17 01:50:23;;;;;;;2.65;2.10;;;;;;;;;;5074317;28;20191;-74
2021/04/17 01:52:50;;;;;;;1.33;1.20;;;5.00;1.00;;;;;;5074443;28;20178;-74
2021/04/17 01:55:16;;;;;;;2.00;1.80;;;;;;;;;;5074629;28;20194;-73
2021/04/17 01:57:43;;;;;;;2.40;2.05;;;;;;;;;;5074468;28;20246;-73
2021/04/17 02:00:10;;;;;;;2.40;1.90;;;5.00;1.00;;;;;;5074254;28;20167;-73
2021/04/17 02:02:36;;;;;;;2.20;1.80;;;;;;;;;;5083075;28;20193;-73
2021/04/17 02:05:02;;;;;;;5.07;1.90;;;;;;;;;;5094488;28;20175;-73
2021/04/17 02:07:28;;;;;;;3.13;2.35;;;;;;;;;;5094576;28;20528;-74
2021/04/17 02:09:54;;;;;;;3.75;2.70;;;;;;;;;;5086651;28;20167;-73
2021/04/17 02:12:20;;;;;;;4.13;2.45;;;;;;;;;;5074518;28;20160;-74
2021/04/17 02:14:46;;;;;;;3.58;2.15;;;;;;;;;;5074405;28;20242;-74
2021/04/17 02:17:23;;;;;;;2.33;1.92;;;;;;;;;;5079060;28;20601;-73
2021/04/17 02:19:59;;;;;;;2.78;1.85;;;;;;;;;;5085844;28;20688;-73
2021/04/17 02:22:26;;;;;;;2.28;2.08;;;5.10;1.00;;;;;;5084211;28;20167;-74
2021/04/17 02:24:53;;;;;;;3.67;2.22;;;;;;;;;;5089951;28;20515;-74
2021/04/17 02:27:20;;;;;;;4.88;2.35;;;5.00;1.00;;;;;;5089000;28;20175;-74
2021/04/17 02:29:55;;;;;;;3.97;2.60;;;5.10;1.00;;;;;;5073862;28;20164;-73
2021/04/17 02:32:21;;;;;;;3.50;2.20;;;5.10;1.00;;;;;;5073410;28;20634;-73
2021/04/17 02:34:48;;;;;;;7.03;3.17;;;;;;;;;;5073651;28;20277;-74
2021/04/17 02:37:14;;;;;;;3.97;2.80;;;;;;;;;;5073752;28;20160;-74
2021/04/17 02:39:41;;;;;;;5.43;2.60;;;;;;;;;;5073635;28;20168;-73
2021/04/17 02:42:07;;;;;;;2.90;2.30;;;;;;;;;;5094355;28;20520;-74
2021/04/17 02:44:33;;;;;;;2.97;2.20;;;;;;;;;;5074205;28;20194;-74
2021/04/17 02:47:00;;;;;;;3.67;2.28;;;;;;;;;;5074070;28;20177;-74
2021/04/17 02:49:26;;;;;;;3.38;1.95;;;;;;;;;;5073602;28;20650;-73
2021/04/17 02:51:52;;;;;;;5.32;3.00;;;;;;;;;;5073802;28;20245;-73
2021/04/17 02:54:18;;;;;;;3.67;2.47;;;;;;;;;;5072228;28;20203;-73
2021/04/17 02:56:47;;;;;;;2.83;2.10;;;;;;;;;;5073792;28;20893;-74
2021/04/17 02:59:14;;;;;;;2.33;2.08;;;;;;;;;;5087297;28;20167;-74
2021/04/17 03:01:40;;;;;;;2.58;2.05;;;5.40;1.00;;;;;;5091849;28;20587;-74
2021/04/17 03:04:07;;;;;;;2.30;2.10;;;;;;;;;;5073360;28;20174;-74
2021/04/17 03:06:35;;;;;;;2.60;2.13;;;;;;;;;;5073462;28;20225;-74
2021/04/17 03:09:06;;;;;;;2.83;2.57;;;;;;;;;;5075222;28;20412;-74
2021/04/17 03:11:36;;;;;;;3.97;2.05;;;;;;;;;;5073757;28;20455;-74
2021/04/17 03:14:02;;;;;;;7.75;1.98;;;5.40;1.00;;;;;;5073449;28;20210;-74
2021/04/17 03:16:29;;;;;;;3.95;2.65;;;;;;;;;;5073618;28;20162;-74
2021/04/17 03:18:55;;;;;;;4.60;2.63;;;;;;;;;;5075012;28;20184;-74
2021/04/17 03:21:21;;;;;;;2.88;2.33;;;;;;;;;;5083016;28;20174;-74
2021/04/17 03:23:47;;;;;;;2.35;2.00;;;;;;;;;;5079312;28;20163;-74
2021/04/17 03:26:17;;;;;;;5.55;2.50;;;;;;;;;;5073414;28;20266;-74
2021/04/17 03:28:44;;;;;;;2.55;2.28;;;;;;;;;;5075487;28;20182;-74
2021/04/17 03:31:11;;;;;;;2.30;2.10;;;;;;;;;;5074186;28;20262;-74
2021/04/17 03:33:37;;;;;;;4.05;2.55;;;;;;;;;;5073107;28;20240;-74
2021/04/17 03:36:03;;;;;;;4.80;2.75;;;;;;;;;;5073163;28;20207;-73
2021/04/17 03:38:29;;;;;;;3.00;2.15;;;;;;;;;;5077951;28;20175;-74
2021/04/17 03:40:55;;;;;;;9.85;2.00;;;;;;;;;;5073775;28;20536;-73
2021/04/17 03:43:21;;;;;;;6.40;2.55;;;5.20;1.00;;;;;;5073295;28;20657;-73
2021/04/17 03:45:47;;;;;;;2.67;2.47;;;;;;;;;;5071789;28;20214;-74
2021/04/17 03:48:13;;;;;;;11.18;2.35;;;;;;;;;;5085966;28;20521;-73
2021/04/17 03:50:40;;;;;;;3.28;2.70;;;;;;;;;;5093366;28;20212;-73
2021/04/17 03:53:06;;;;;;;2.70;2.00;;;;;;;;;;5078437;28;20171;-74
2021/04/17 03:55:32;;;;;;;2.90;2.30;;;;;;;;;;5071686;28;20199;-74
2021/04/17 03:57:58;;;;;;;4.05;2.60;;;;;;;;;;5072171;28;20525;-74
2021/04/17 04:00:36;;;;;;;7.28;3.15;;;;;;;;;;5072999;28;20159;-74
2021/04/17 04:03:02;;;;;;;2.63;2.40;;;;;;;;;;5086116;28;20162;-74
2021/04/17 04:05:30;;;;;;;3.35;2.80;;;;;;;;;;5093367;28;20154;-74
2021/04/17 04:07:59;;;;;;;5.88;2.85;;;;;;;;;;5081685;28;20221;-74
2021/04/17 04:10:29;;;;;;;4.30;2.05;;;;;;;;;;5074730;28;20622;-74
2021/04/17 04:12:59;;;;;;;4.60;2.38;;;;;;;;;;5086990;28;20250;-74
2021/04/17 04:15:25;;;;;;;2.05;1.95;;;;;;;;;;5096680;28;20582;-74
2021/04/17 04:17:54;;;;;;;6.30;2.58;;;;;;;;;;5096572;28;20561;-74
2021/04/17 04:20:23;;;;;;;2.35;2.10;;;;;;;;;;5096694;28;20159;-74
2021/04/17 04:22:49;;;;;;;3.10;2.50;;;;;;;;;;5079558;28;20215;-74
2021/04/17 04:25:16;;;;;;;3.13;2.83;;;;;;;;;;5076224;28;20243;-74
2021/04/17 04:27:47;;;;;;;12.50;2.20;;;;;;;;;;5076423;28;20647;-74
2021/04/17 04:30:18;;;;;;;9.68;2.65;;;;;;;;;;5076172;28;20164;-74
2021/04/17 04:32:44;;;;;;;7.18;2.50;;;;;;;;;;5075719;28;20171;-74
2021/04/17 04:35:10;;;;;;;4.78;1.92;;;;;;;;;;5092576;28;20229;-74
2021/04/17 04:37:37;;;;;;;11.98;2.47;;;;;;;;;;5093194;28;20167;-74
2021/04/17 04:40:06;;;;;;;5.38;2.33;;;4.60;1.00;;;;;;5095390;28;20727;-74
2021/04/17 04:42:33;;;;;;;3.97;2.35;;;;;;;;;;5094792;28;20744;-74
2021/04/17 04:45:00;;;;;;;11.23;3.05;;;4.60;1.00;;;;;;5092725;28;20210;-74
2021/04/17 04:47:36;;;;;;;5.28;2.45;;;;;;;;;;5095935;28;20607;-74
2021/04/17 04:50:04;;;;;;;6.20;2.63;;;4.50;1.00;;;;;;5078180;28;20257;-74
2021/04/17 04:52:30;;;;;;;6.22;2.33;;;;;;;;;;5086122;28;20174;-74
2021/04/17 04:55:11;;;;;;;7.05;2.67;;;;;;;;;;5076738;28;20195;-73
2021/04/17 04:57:41;;;;;;;2.90;2.03;;;;;;;;;;5076186;28;20167;-74
2021/04/17 05:00:08;;;;;;;4.15;2.20;;;;;;;;;;5080815;28;20536;-74
2021/04/17 05:02:34;;;;;;;6.43;2.30;;;;;;;;;;5082973;28;20178;-74
2021/04/17 05:05:00;;;;;;;3.20;2.17;;;;;;;;;;5092199;28;20181;-74
2021/04/17 05:07:26;;;;;;;1.85;1.65;;;;;;;;;;5075532;28;20163;-74
2021/04/17 05:09:52;;;;;;;4.07;1.70;;;;;;;;;;5075527;28;20238;-74
2021/04/17 05:12:23;;;;;;;3.97;2.10;;;;;;;;;;5077139;28;20643;-74
2021/04/17 05:14:53;;;;;;;2.00;1.90;;;;;;;;;;5094955;28;20459;-78
2021/04/17 05:17:30;;;;;;;17.10;2.13;;;;;;;;;;5079664;28;20627;-78
2021/04/17 05:20:00;;;;;;;1.65;1.55;;;;;;;;;;5092592;28;20575;-76
2021/04/17 05:22:29;;;;;;;2.80;2.20;;;;;;;;;;5094878;28;20181;-74
2021/04/17 05:25:06;;;;;;;12.20;1.73;;;;;;;;;;5095328;28;20257;-79
2021/04/17 05:27:35;;;;;;;2.90;1.65;;;;;;;;;;5095479;28;20159;-80
2021/04/17 05:30:23;;;;;;;4.88;1.40;;;5.10;1.00;;;;;;5095291;28;20162;-80
2021/04/17 05:32:49;;;;;;;5.40;1.60;;;;;;;;;;5076388;28;20325;-80
2021/04/17 05:35:15;;;;;;;1.55;1.45;;;;;;;;;;5079753;28;20182;-75
2021/04/17 05:37:41;;;;;;;1.80;1.42;;;;;;;;;;5077060;28;20167;-75
2021/04/17 05:40:24;;;;;;;1.85;1.60;;;;;;;;;;5074867;28;20178;-80
2021/04/17 05:42:54;;;;;;;4.00;2.10;;;;;;;;;;5090361;28;20236;-74
2021/04/17 05:45:20;;;;;;;2.58;1.52;;;;;;;;;;5073950;28;20186;-74
2021/04/17 05:47:46;;;;;;;2.65;1.60;;;;;;;;;;5079966;28;20203;-81
2021/04/17 05:50:18;;;;;;;3.00;1.90;;;;;;;;;;5079311;28;20174;-75
2021/04/17 05:52:44;;;;;;;3.80;1.80;;;;;;;;;;5077515;28;20185;-74
2021/04/17 05:55:10;;;;;;;3.03;1.67;;;;;;;;;;5074162;28;20195;-74
2021/04/17 05:57:36;;;;;;;3.90;1.93;;;;;;;;;;5074677;28;20435;-74
2021/04/17 06:00:03;;;;;;;2.58;1.90;;;;;;;;;;5077312;28;20815;-75
2021/04/17 06:02:47;;;;;;;10.38;1.92;;;;;;;;;;5073420;28;20167;-76
2021/04/17 06:05:14;;;;;;;3.30;1.83;;;;;;;;;;5081155;28;20175;-76
2021/04/17 06:07:40;;;;;;;3.07;1.57;;;;;;;;;;5074105;28;20450;-74
2021/04/17 06:10:07;;;;;;;1.97;1.50;;;6.70;1.00;;;;;;5082043;28;20427;-74
2021/04/17 06:12:35;;;;;;;2.03;1.60;;;;;;;;;;5089891;28;20527;-74
2021/04/17 06:15:02;;;;;;;10.40;1.60;;;;;;;;;;5077287;28;20514;-74
2021/04/17 06:17:28;;;;;;;3.70;1.80;;;;;;;;;;5074798;28;20406;-74
2021/04/17 06:19:54;;;;;;;9.83;1.73;;;;;;;;;;5074118;28;20386;-74
2021/04/17 06:22:24;;;;;;;3.17;1.87;;;;;;;;;;5085664;28;20412;-74
2021/04/17 06:24:54;;;;;;;4.23;1.73;;;;;;;;;;5091937;28;20408;-74
2021/04/17 06:27:20;;;;;;;2.83;1.87;;;;;;;;;;5094609;28;20734;-73
2021/04/17 06:29:46;;;;;;;4.13;2.00;;;;;;;;;;5088373;28;20425;-74
2021/04/17 06:32:12;;;;;;;6.70;2.23;;;;;;;;;;5089012;28;20420;-74
2021/04/17 06:34:38;;;;;;;5.33;2.20;;;;;;;;;;5074768;28;20945;-74
2021/04/17 06:37:05;;;;;;;7.33;2.37;;;;;;;;;;5079424;28;20551;-74
2021/04/17 06:39:31;;;;;;;4.90;2.10;;;;;;;;;;5073672;28;20908;-74
2021/04/17 06:42:01;;;;;;;2.90;1.63;;;7.90;1.00;;;;;;5073642;28;20417;-74
2021/04/17 06:44:28;;;;;;;2.70;1.97;;;7.90;1.00;;;;;;5075503;28;20477;-74
2021/04/17 06:46:54;;;;;;;2.00;1.60;;;;;;;;;;5073761;28;20428;-74
2021/04/17 06:49:20;;;;;;;5.13;1.70;;;7.90;1.00;;;;;;5073406;28;20418;-74
2021/04/17 06:51:48;;;;;;;2.70;1.67;;;8.00;1.00;;;;;;5073711;28;20417;-74
2021/04/17 06:54:21;;;;;;;4.70;1.80;;;;;;;;;;5073700;28;20434;-74
2021/04/17 06:56:49;;;;;;;2.27;1.63;;;8.10;1.00;;;;;;5090342;28;20440;-74
2021/04/17 06:59:16;;;;;;;5.13;1.90;;;;;;;;;;5090050;28;20410;-74
2021/04/17 07:01:42;;;;;;;3.23;1.93;;;;;;;;;;5079428;28;20497;-74
2021/04/17 07:04:08;;;;;;;3.47;2.00;;;;;;;;;;5073890;28;20849;-74
2021/04/17 07:06:34;;;;;;;5.33;1.90;;;;;;;;;;5085589;28;20440;-74
2021/04/17 07:09:13;;;;;;;4.40;2.00;;;;;;;;;;5084954;28;20905;-74
2021/04/17 07:11:42;;;;;;;4.83;2.30;;;;;;;;;;5087254;28;20457;-74
2021/04/17 07:14:12;;;;;;;4.00;2.27;;;8.90;1.00;;;;;;5086657;28;20460;-74
2021/04/17 07:17:01;;;;;;;4.97;1.90;;;9.10;1.00;;;;;;5082430;28;20417;-74
2021/04/17 07:19:47;;;;;;;1.93;1.73;;;9.30;1.00;;;;;;5073146;28;20508;-74
2021/04/17 07:22:24;;;;;;;3.23;2.00;;;9.40;1.00;;;;;;5083569;28;20412;-74
2021/04/17 07:25:15;;;;;;;4.83;2.43;;;9.70;1.00;;;;;;5083863;28;20776;-74
2021/04/17 07:27:47;;;;;;;3.43;1.63;;;9.80;1.00;;;;;;5081793;28;20421;-73
2021/04/17 07:30:16;;;;;;;3.33;2.27;;;;;;;;;;5085281;28;20456;-74
2021/04/17 07:33:10;;;;;;;3.30;2.00;;;9.70;1.00;;;;;;5090724;28;20381;-74
2021/04/17 07:35:53;;;;;;;9.43;2.57;;;9.80;1.00;;;;;;5073915;28;20543;-73
2021/04/17 07:38:32;;;;;;;2.90;1.80;;;9.90;1.00;;;;;;5073067;28;20743;-76
2021/04/17 07:41:01;;;;;;;4.97;2.80;;;;;;;;;;5073226;28;20413;-74
2021/04/17 07:43:49;;;;;;;2.90;2.07;;;10.00;1.00;;;;;;5092635;28;20754;-73
2021/04/17 07:46:36;;;;;;;4.00;2.40;;;9.90;1.00;;;;;;5075782;28;20787;-74
2021/04/17 07:49:13;;;;;;;4.50;2.70;;;9.90;1.00;;;;;;5054755;28;20426;-74
2021/04/17 07:51:58;;;;;;;11.73;2.40;;;;;;;;;;5050439;28;20437;-74
2021/04/17 07:54:30;;;;;;;3.50;2.40;;;;;;;;;;5074416;28;20427;-74
2021/04/17 07:57:10;;;;;;;2.53;1.60;;;9.80;1.00;;;;;;5074523;28;20889;-74
2021/04/17 07:59:42;;;;;;;4.43;2.33;;;;;;;;;;5074172;28;20498;-74
2021/04/17 08:02:11;;;;;;;3.03;2.27;;;;;;;;;;5065741;28;20891;-74
2021/04/17 08:04:45;;;;;;;3.90;2.03;;;10.10;1.00;;;;;;5070814;28;20440;-74
2021/04/17 08:07:11;;;;;;;7.10;3.20;;;;;;;;;;5057098;28;20439;-74
2021/04/17 08:09:38;;;;;;;9.33;2.63;;;;;;;;;;5056655;28;20413;-74
2021/04/17 08:12:04;;;;;;;5.93;2.57;;;;;;;;;;5070035;28;20440;-74
2021/04/17 08:14:30;;;;;;;3.37;2.00;;;;;;;;;;5073920;28;20452;-73
2021/04/17 08:16:57;;;;;;;3.77;2.43;;;;;;;;;;5073916;28;20421;-74
2021/04/17 08:19:23;;;;;;;4.73;2.40;;;;;;;;;;5074155;28;20421;-74
2021/04/17 08:21:51;;;;;;;4.40;2.03;;;10.40;1.00;;;;;;5071400;28;20414;-74
2021/04/17 08:24:28;;;;;;;3.23;2.50;;;10.20;1.00;;;;;;5073604;28;20771;-74
2021/04/17 08:26:56;;;;;;;6.23;2.10;;;10.00;1.00;;;;;;5083378;28;20420;-73
2021/04/17 08:29:48;;;;;;;3.73;2.10;;;10.10;1.00;;;;;;5078691;28;20961;-74
2021/04/17 08:32:29;;;;;;;2.20;2.00;;;;;;;;;;5080661;28;20889;-74
2021/04/17 08:35:10;;;;;;;3.93;2.10;;;;;;;;;;5078332;28;20449;-74
2021/04/17 08:37:56;;;;;;;7.80;2.00;;;10.30;1.00;;;;;;5077284;28;20740;-74
2021/04/17 08:40:52;;;;;;;4.63;2.30;;;10.50;1.00;;;;;;5075891;28;20415;-73
2021/04/17 08:43:17;;;;;;;6.77;2.87;;;10.60;1.00;;;;;;5033438;28;20928;-75
2021/04/17 08:46:14;;;;;;;7.63;2.30;;;10.80;1.00;;;;;;5039055;28;20427;-75
2021/04/17 08:48:48;;;;;;;6.90;2.20;;;11.10;1.00;;;;;;5035742;28;20215;-75
2021/04/17 08:51:25;;;;;;;4.83;1.70;;;;;;;;;;5040520;28;20433;-76
2021/04/17 08:54:05;;;;;;;4.60;2.30;;;;;;;;;;5033205;28;20906;-75
2021/04/17 08:56:52;;;;;;;3.43;1.90;;;10.90;1.00;;;;;;5032018;28;20461;-75
2021/04/17 08:59:22;;;;;;;3.07;2.00;;;10.80;1.00;;;;;;5053516;28;20401;-75
2021/04/17 09:01:55;;;;;;;7.80;2.10;;;10.70;1.00;;;;;;5038076;28;20419;-83
2021/04/17 09:05:05;;;;;;;2.83;1.53;;;10.70;1.00;;;;;;5033635;28;20427;-83
2021/04/17 09:08:10;;;;;;;2.93;1.57;;;10.70;1.00;;;;;;5017026;28;20862;-83
2021/04/17 09:10:36;;;;;;;1.70;1.37;;;;;;;;;;5048017;28;20426;-75
2021/04/17 09:13:13;;;;;;;6.50;1.80;;;;;;;;;;5046804;28;20429;-75
2021/04/17 09:15:51;;;;;;;3.90;1.93;;;;;;;;;;5033189;28;20585;-74
2021/04/17 09:18:36;;;;;;;4.70;1.63;;;;;;;;;;5033366;28;20490;-75
2021/04/17 09:21:02;;;;;;;5.63;2.00;;;;;;;;;;5074696;28;20394;-74
2021/04/17 09:23:46;;;;;;;5.40;2.10;;;11.30;1.00;;;;;;5085979;28;20421;-75
2021/04/17 09:26:45;;;;;;;2.30;1.53;;;11.40;1.00;;;;;;5073764;28;20435;-75
2021/04/17 09:29:17;;;;;;;2.60;1.60;;;;;;;;;;5018028;28;20946;-75
2021/04/17 09:31:45;;;;;;;6.80;2.00;;;;;;;;;;5033051;28;20427;-74
2021/04/17 09:34:14;;;;;;;5.73;1.97;;;11.60;1.00;;;;;;5015759;28;20943;-74
2021/04/17 09:36:42;;;;;;;1.27;1.17;;;;;;;;;;5049787;28;20808;-74
2021/04/17 09:39:26;;;;;;;1.90;1.27;;;;;;;;;;5033800;28;20482;-74
2021/04/17 09:41:53;;;;;;;1.33;1.23;;;12.20;1.00;;;;;;5013210;28;20818;-74
2021/04/17 09:44:24;;;;;;;2.10;1.63;;;;;;;;;;5012937;28;20443;-74
2021/04/17 09:47:10;;;;;;;4.60;1.67;;;12.60;1.00;;;;;;5013552;28;21042;-73
2021/04/17 09:49:41;;;;;;;2.80;1.30;;;;;;;;;;5032569;28;20419;-74
2021/04/17 09:52:17;;;;;;;6.07;2.10;;;12.60;1.00;;;;;;5032654;28;20419;-74
2021/04/17 09:55:04;;;;;;;3.43;1.40;;;;;;;;;;5012647;28;20538;-74
2021/04/17 09:57:31;;;;;;;4.17;1.80;;;;;;;;;;5012601;28;20448;-73
2021/04/17 09:59:59;;;;;;;5.03;1.87;;;12.10;1.00;;;;;;5031374;28;20402;-73
2021/04/17 10:02:46;;;;;;;3.30;1.70;;;12.30;1.00;;;;;;5032762;28;20431;-73
2021/04/17 10:05:13;;;;;;;6.23;1.70;;;12.60;1.00;;;;;;5063028;28;20479;-73
2021/04/17 10:07:43;;;;;;;2.30;1.30;;;;;;;;;;5094465;28;20500;-73
2021/04/17 10:10:13;;;;;;;2.40;1.20;;;12.10;1.00;;;;;;5094508;28;20484;-74
2021/04/17 10:12:53;;;;;;;1.60;1.50;;;12.20;1.00;;;;;;5094451;28;20454;-74
2021/04/17 10:15:20;;;;;;;1.77;1.40;;;12.10;1.00;;;;;;5093884;28;20447;-73
2021/04/17 10:17:52;;;;;;;3.00;1.17;;;12.20;1.00;;;;;;5074322;28;20418;-73
2021/04/17 10:20:19;;;;;;;2.40;1.63;;;12.40;1.00;;;;;;5074201;28;20854;-73
2021/04/17 10:22:53;;;;;;;2.90;1.47;;;12.70;1.00;;;;;;5073956;28;20400;-73
2021/04/17 10:25:38;;;;;;;3.00;1.60;;;12.80;1.00;;;;;;5074093;28;20416;-73
2021/04/17 10:28:18;;;;;;;3.90;1.30;;;12.80;1.00;;;;;;5073400;28;20405;-72
2021/04/17 10:30:48;;;;;;;6.17;1.90;;;12.70;1.00;;;;;;5085883;28;20432;-73
2021/04/17 10:33:25;;;;;;;1.90;1.70;;;12.50;1.00;;;;;;5078746;28;20411;-75
2021/04/17 10:35:53;;;;;;;3.43;1.53;;;12.30;1.00;;;;;;5091775;28;20443;-75
2021/04/17 10:38:39;;;;;;;3.47;1.40;;;12.20;1.00;;;;;;5073637;28;20519;-75
2021/04/17 10:41:05;;;;;;;6.90;1.63;;;;;;;;;;5081189;28;20443;-75
2021/04/17 10:43:31;;;;;;;2.53;1.80;;;12.80;1.00;;;;;;5093906;28;20921;-74
2021/04/17 10:45:59;;;;;;;2.37;1.70;;;;;;;;;;5090242;28;20423;-74
2021/04/17 10:48:26;;;;;;;2.03;1.50;;;12.70;1.00;;;;;;5081530;28;20767;-74
2021/04/17 10:51:07;;;;;;;5.33;2.10;;;13.00;1.00;;;;;;5087729;28;20897;-74
2021/04/17 10:53:34;;;;;;;4.00;1.70;;;;;;;;;;5073624;28;20851;-74
2021/04/17 10:56:15;;;;;;;2.30;1.73;;;13.80;1.00;;;;;;5072481;28;20442;-75
2021/04/17 10:58:43;;;;;;;5.43;2.17;;;13.70;1.00;;;;;;5075074;28;20428;-75
2021/04/17 11:01:11;;;;;;;2.43;1.47;;;13.20;1.00;;;;;;5073559;28;20481;-74
2021/04/17 11:03:52;;;;;;;4.13;1.67;;;13.10;1.00;;;;;;5072343;28;20889;-74
2021/04/17 11:06:23;;;;;;;5.63;2.00;;;13.10;1.00;;;;;;5073676;28;20395;-74
2021/04/17 11:09:04;;;;;;;2.70;1.63;;;13.10;1.00;;;;;;5071724;28;20432;-73
2021/04/17 11:11:30;;;;;;;3.00;1.50;;;;;;;;;;5084772;28;20458;-74
2021/04/17 11:14:01;;;;;;;2.40;1.60;;;13.10;1.00;;;;;;5078986;28;20416;-73
2021/04/17 11:16:46;;;;;;;3.23;1.30;;;12.80;1.00;;;;;;5093497;28;20593;-74
2021/04/17 11:19:36;;;;;;;9.77;2.27;;;12.70;1.00;;;;;;5092185;28;20533;-73
2021/04/17 11:22:24;;;;;;;1.70;1.33;;;;;;;;;;5082474;28;20429;-74
2021/04/17 11:24:58;;;;;;;1.10;0.90;;;;;;;;;;5082939;28;20888;-74
2021/04/17 11:27:26;;;;;;;10.30;2.20;;;13.00;1.00;;;;;;5079564;28;20389;-74
2021/04/17 11:29:52;;;;;;;4.73;1.23;;;;;;;;;;5085017;28;20421;-74
2021/04/17 11:32:19;;;;;;;1.00;1.00;;;13.50;1.00;;;;;;5077385;28;20490;-73
2021/04/17 11:34:47;;;;;;;2.40;1.20;;;13.70;1.00;;;;;;5077120;28;20979;-74
2021/04/17 11:37:13;;;;;;;5.50;1.33;;;13.70;1.00;;;;;;5077590;28;20478;-73
2021/04/17 11:39:39;;;;;;;2.03;1.13;;;;;;;;;;5097564;28;20388;-73
2021/04/17 11:42:06;;;;;;;1.50;1.40;;;13.20;1.00;;;;;;5096945;28;20476;-73
2021/04/17 11:44:36;;;;;;;3.33;1.47;;;;;;;;;;5097196;28;20954;-73
2021/04/17 11:47:02;;;;;;;5.60;1.40;;;13.30;1.00;;;;;;5096652;28;20718;-74
2021/04/17 11:49:28;;;;;;;3.00;1.30;;;;;;;;;;5089129;28;20422;-74
2021/04/17 11:52:00;;;;;;;2.73;1.40;;;;;;;;;;5076855;28;20396;-74
2021/04/17 11:54:26;;;;;;;9.07;1.40;;;;;;;;;;5094732;28;20906;-75
2021/04/17 11:56:54;;;;;;;11.93;2.27;;;;;;;;;;5097064;28;20725;-75
2021/04/17 11:59:20;;;;;;;3.90;1.10;;;;;;;;;;5097046;28;20420;-74
2021/04/17 12:01:46;;;;;;;2.47;1.67;;;;;;;;;;5094110;28;20904;-74
2021/04/17 12:04:12;;;;;;;6.83;1.50;;;;;;;;;;5097275;28;20408;-73
2021/04/17 12:06:39;;;;;;;3.97;1.63;;;;;;;;;;5096892;28;20391;-74
2021/04/17 12:09:05;;;;;;;5.13;1.90;;;;;;;;;;5096509;28;20400;-74
2021/04/17 12:11:32;;;;;;;7.43;1.47;;;;;;;;;;5094109;28;20877;-73
2021/04/17 12:14:00;;;;;;;4.73;1.93;;;;;;;;;;5076462;28;20854;-74
2021/04/17 12:16:30;;;;;;;3.90;1.63;;;;;;;;;;5076248;28;20423;-73
2021/04/17 12:18:56;;;;;;;3.50;1.53;;;;;;;;;;5076727;28;20456;-74
2021/04/17 12:21:22;;;;;;;2.40;1.40;;;;;;;;;;5076049;28;20830;-74
2021/04/17 12:23:48;;;;;;;2.47;1.30;;;;;;;;;;5091176;28;20447;-73
2021/04/17 12:26:14;;;;;;;2.73;1.73;;;;;;;;;;5096341;28;20868;-74
2021/04/17 12:28:40;;;;;;;8.00;3.00;;;;;;;;;;5095343;28;20911;-73
2021/04/17 12:31:11;;;;;;;3.13;1.50;;;13.60;1.00;;;;;;5085380;28;20877;-74
2021/04/17 12:33:37;;;;;;;3.83;1.70;;;13.90;1.00;;;;;;5082175;28;20403;-74
2021/04/17 12:36:05;;;;;;;4.67;1.70;;;;;;;;;;5096320;28;20500;-74
2021/04/17 12:38:42;;;;;;;5.37;1.80;;;;;;;;;;5084271;28;20432;-74
2021/04/17 12:41:12;;;;;;;3.73;1.70;;;;;;;;;;5076114;28;20949;-74
2021/04/17 12:43:38;;;;;;;2.27;1.20;;;13.60;1.00;;;;;;5088999;28;20404;-74
2021/04/17 12:46:05;;;;;;;5.43;1.80;;;13.60;1.00;;;;;;5075868;28;20440;-74
2021/04/17 12:48:32;;;;;;;2.13;1.40;;;;;;;;;;5076317;28;20412;-75
2021/04/17 12:50:58;;;;;;;4.10;1.83;;;;;;;;;;5075958;28;20418;-75
2021/04/17 12:53:25;;;;;;;4.13;1.50;;;;;;;;;;5075869;28;20789;-75
2021/04/17 12:55:54;;;;;;;1.37;1.20;;;;;;;;;;5075953;28;20534;-75
2021/04/17 12:58:20;;;;;;;2.80;1.73;;;;;;;;;;5075670;28;20410;-76
2021/04/17 13:00:49;;;;;;;12.90;6.30;;;;;;;;;;5091369;28;20408;-76
2021/04/17 13:03:23;;;;;;;6.60;4.17;;;;;;;;;;5093163;28;20475;-74
2021/04/17 13:05:54;;;;;;;2.40;1.73;;;;;;;;;;5075695;28;20869;-74
2021/04/17 13:08:25;;;;;;;1.77;1.50;;;;;;;;;;5075523;28;20410;-74
2021/04/17 13:10:51;;;;;;;2.17;1.90;;;13.60;1.00;;;;;;5075530;28;20393;-75
2021/04/17 13:13:17;;;;;;;5.47;1.67;;;13.70;1.00;;;;;;5075616;28;20412;-74
2021/04/17 13:15:45;;;;;;;8.17;1.97;;;;;;;;;;5074144;28;20822;-74
2021/04/17 13:18:24;;;;;;;8.80;1.90;;;;;;;;;;5075696;28;20390;-74
2021/04/17 13:20:54;;;;;;;12.40;2.53;;;;;;;;;;5093587;28;20444;-74
2021/04/17 13:23:30;;;;;;;5.03;1.20;;;;;;;;;;5095587;28;20367;-74
2021/04/17 13:25:58;;;;;;;3.20;1.90;;;13.30;1.00;;;;;;5076733;28;20444;-75
2021/04/17 13:28:24;;;;;;;1.93;1.70;;;;;;;;;;5075123;28;20738;-74
2021/04/17 13:30:50;;;;;;;2.97;1.57;;;;;;;;;;5075742;28;20429;-74
2021/04/17 13:33:17;;;;;;;7.37;1.57;;;14.00;1.00;;;;;;5095603;28;20773;-75
2021/04/17 13:35:44;;;;;;;3.70;1.90;;;;;;;;;;5078752;28;20496;-74
2021/04/17 13:38:10;;;;;;;8.97;2.00;;;13.90;1.00;;;;;;5082148;28;20399;-74
2021/04/17 13:40:36;;;;;;;5.40;2.30;;;;;;;;;;5094384;28;20413;-75
2021/04/17 13:43:02;;;;;;;4.73;1.60;;;14.60;1.00;;;;;;5094812;28;20393;-74
2021/04/17 13:45:29;;;;;;;5.10;1.83;;;14.50;1.00;;;;;;5074209;28;20501;-74
2021/04/17 13:47:55;;;;;;;4.83;2.50;;;14.30;1.00;;;;;;5075183;28;20171;-74
2021/04/17 13:50:22;;;;;;;6.80;2.00;;;;;;;;;;5085345;28;20423;-74
2021/04/17 13:52:48;;;;;;;5.17;1.73;;;;;;;;;;5095085;28;20372;-74
2021/04/17 13:55:18;;;;;;;4.93;1.80;;;;;;;;;;5093605;28;20996;-74
2021/04/17 13:57:47;;;;;;;1.60;1.30;;;14.30;1.00;;;;;;5094669;28;20872;-74
2021/04/17 14:00:18;;;;;;;6.17;1.93;;;;;;;;;;5084523;28;20422;-74
2021/04/17 14:02:44;;;;;;;2.33;1.40;;;14.30;1.00;;;;;;5083217;28;20440;-74
2021/04/17 14:05:10;;;;;;;1.90;1.50;;;;;;;;;;5095517;28;20456;-75
2021/04/17 14:07:42;;;;;;;3.20;2.20;;;;;;;;;;5094724;28;20162;-83
2021/04/17 14:10:08;;;;;;;6.30;1.70;;;;;;;;;;5094751;28;20429;-76
2021/04/17 14:12:35;;;;;;;3.03;1.60;;;13.40;1.00;;;;;;5094300;28;20946;-75
2021/04/17 14:15:01;;;;;;;6.80;1.63;;;;;;;;;;5086706;28;20547;-75
2021/04/17 14:17:27;;;;;;;3.60;1.60;;;13.30;1.00;;;;;;5074340;28;20397;-76
2021/04/17 14:19:53;;;;;;;6.53;2.07;;;;;;;;;;5074744;28;20409;-75
2021/04/17 14:22:24;;;;;;;2.33;1.50;;;;;;;;;;5073998;28;20693;-74
2021/04/17 14:24:50;;;;;;;3.90;1.90;;;;;;;;;;5093965;28;20412;-74